Terminal Aerodrome Forecast
Issued by NWS

Home | Current Version | Previous Version | Text Only | Print | Product List | Glossary On
Versions: 1 2 3 4 5 6 7 8 9 10 11 12 13
000
FTUS44 KSJT 220520
TAFBBD
TAF
KBBD 220520Z 2206/2306 15008KT P6SM FEW060
     FM221000 14006KT 5SM BR OVC015
     FM221500 15008KT P6SM BKN025
     FM221800 15010KT P6SM SCT250
      AMD NOT SKED=

USA.gov is the U.S. government's official web portal to all federal, state and local government web resources and services.